createdAt,value
2022-08-17T00:02:26.259Z,99.90
2022-08-17T00:04:56.974Z,99.90
2022-08-17T00:07:26.241Z,99.90
2022-08-17T00:09:53.241Z,99.90
2022-08-17T00:12:41.839Z,99.90
2022-08-17T00:15:12.072Z,99.90
2022-08-17T00:17:39.540Z,99.90
2022-08-17T00:20:06.919Z,99.90
2022-08-17T00:22:36.337Z,99.90
2022-08-17T00:25:10.254Z,99.90
2022-08-17T00:27:37.135Z,99.90
2022-08-17T00:30:06.687Z,99.90
2022-08-17T00:33:12.524Z,99.90
2022-08-17T00:35:32.379Z,99.90
2022-08-17T00:37:59.381Z,99.90
2022-08-17T00:40:26.512Z,99.90
2022-08-17T00:43:16.701Z,99.90
2022-08-17T00:45:44.287Z,99.90
2022-08-17T00:48:30.070Z,99.90
2022-08-17T00:51:07.107Z,99.90
2022-08-17T00:53:37.592Z,99.90
2022-08-17T00:56:07.553Z,99.90
2022-08-17T00:58:36.062Z,99.90
2022-08-17T01:01:06.789Z,99.90
2022-08-17T01:03:35.026Z,99.90
2022-08-17T01:06:04.456Z,99.90
2022-08-17T01:08:32.017Z,99.90
2022-08-17T01:11:05.341Z,99.90
2022-08-17T01:13:41.843Z,99.90
2022-08-17T01:16:40.990Z,99.90
2022-08-17T01:19:20.884Z,99.90
2022-08-17T01:21:57.451Z,99.90
2022-08-17T01:24:24.343Z,99.90
2022-08-17T01:26:53.594Z,99.90
2022-08-17T01:29:24.520Z,99.90
2022-08-17T01:31:56.429Z,99.90
2022-08-17T01:34:24.856Z,99.90
2022-08-17T01:37:04.181Z,99.90
2022-08-17T01:39:33.107Z,99.90
2022-08-17T01:42:15.672Z,99.90
2022-08-17T01:44:45.017Z,99.90
2022-08-17T01:47:14.137Z,99.90
2022-08-17T01:49:41.011Z,99.90
2022-08-17T01:52:12.225Z,99.90
2022-08-17T01:54:41.336Z,99.90
2022-08-17T01:57:10.717Z,99.90
2022-08-17T01:59:37.757Z,99.90
2022-08-17T02:02:05.385Z,99.90
2022-08-17T02:04:32.291Z,99.90
2022-08-17T02:07:01.713Z,99.90
2022-08-17T02:09:32.185Z,99.90
2022-08-17T02:12:37.922Z,99.90
2022-08-17T02:14:50.929Z,99.90
2022-08-17T02:17:17.741Z,99.90
2022-08-17T02:19:46.759Z,99.90
2022-08-17T02:22:18.652Z,99.90
2022-08-17T02:25:00.591Z,99.90
2022-08-17T02:27:29.564Z,99.90
2022-08-17T02:29:58.568Z,99.90
2022-08-17T02:32:28.527Z,99.90
2022-08-17T02:34:57.409Z,99.90
2022-08-17T02:37:25.579Z,99.90
2022-08-17T02:39:52.707Z,99.90
2022-08-17T02:42:27.767Z,99.90
2022-08-17T02:44:57.207Z,99.90
2022-08-17T02:47:24.622Z,99.90
2022-08-17T02:49:55.611Z,99.90
2022-08-17T02:52:42.534Z,99.90
2022-08-17T02:55:16.087Z,99.90
2022-08-17T02:57:46.220Z,99.90
2022-08-17T03:00:21.957Z,99.90
2022-08-17T03:02:49.750Z,99.90
2022-08-17T03:05:22.038Z,99.90
2022-08-17T03:07:49.209Z,99.90
2022-08-17T03:10:17.252Z,99.90
2022-08-17T03:12:45.581Z,99.90
2022-08-17T03:15:26.547Z,99.90
2022-08-17T03:17:54.655Z,99.90
2022-08-17T03:20:21.872Z,99.90
2022-08-17T03:23:01.964Z,99.90
2022-08-17T03:25:36.409Z,99.90
2022-08-17T03:28:06.912Z,99.90
2022-08-17T03:30:38.838Z,99.90
2022-08-17T03:33:09.942Z,99.90
2022-08-17T03:35:39.595Z,99.90
2022-08-17T03:38:07.447Z,99.90
2022-08-17T03:40:57.030Z,99.90
2022-08-17T03:43:24.918Z,99.90
2022-08-17T03:46:11.046Z,99.90
2022-08-17T03:49:15.741Z,99.90
2022-08-17T03:52:01.268Z,99.90
2022-08-17T03:54:46.675Z,99.90
2022-08-17T03:57:16.388Z,99.90
2022-08-17T03:59:44.958Z,99.90
2022-08-17T04:02:18.966Z,99.90
2022-08-17T04:04:46.087Z,99.90
2022-08-17T04:07:12.960Z,99.90
2022-08-17T04:09:45.019Z,99.90
2022-08-17T04:12:14.093Z,99.90
2022-08-17T04:14:52.037Z,99.90
2022-08-17T04:17:24.223Z,99.90
2022-08-17T04:19:54.811Z,99.90
2022-08-17T04:22:33.099Z,99.90
2022-08-17T04:25:32.201Z,99.90
2022-08-17T04:27:59.929Z,99.90
2022-08-17T04:30:28.403Z,99.90
2022-08-17T04:33:07.292Z,99.90
2022-08-17T04:35:42.505Z,99.90
2022-08-17T04:38:13.925Z,99.90
2022-08-17T04:41:02.302Z,99.90
2022-08-17T04:43:31.191Z,99.90
2022-08-17T04:46:07.241Z,99.90
2022-08-17T04:48:41.007Z,99.90
2022-08-17T04:51:15.800Z,99.90
2022-08-17T04:53:45.318Z,99.90
2022-08-17T04:56:19.171Z,99.90
2022-08-17T04:58:51.308Z,99.90
2022-08-17T05:01:24.009Z,99.90
2022-08-17T05:03:53.644Z,99.90
2022-08-17T05:06:23.539Z,99.90
2022-08-17T05:08:50.808Z,99.90
2022-08-17T05:11:20.289Z,99.90
2022-08-17T05:13:52.162Z,99.90
2022-08-17T05:16:22.246Z,99.90
2022-08-17T05:18:49.527Z,99.90
2022-08-17T05:21:19.811Z,99.90
2022-08-17T05:23:54.689Z,99.90
2022-08-17T05:26:26.793Z,99.90
2022-08-17T05:29:02.674Z,99.90
2022-08-17T05:31:30.682Z,99.90
2022-08-17T05:33:58.122Z,99.90
2022-08-17T05:36:42.446Z,99.90
2022-08-17T05:39:15.966Z,99.90
2022-08-17T05:41:47.682Z,99.90
2022-08-17T05:44:15.250Z,99.90
2022-08-17T05:46:47.519Z,99.90
2022-08-17T05:49:17.671Z,99.90
2022-08-17T05:52:13.414Z,99.90
2022-08-17T05:55:21.239Z,99.90
2022-08-17T05:58:09.356Z,99.90
2022-08-17T06:00:44.630Z,99.90
2022-08-17T06:03:35.531Z,99.90
2022-08-17T06:06:05.196Z,99.90
2022-08-17T06:08:43.476Z,99.90
2022-08-17T06:11:24.671Z,99.90
2022-08-17T06:14:09.225Z,99.90
2022-08-17T06:16:42.827Z,99.90
2022-08-17T06:19:20.321Z,99.90
2022-08-17T06:21:53.170Z,99.90
2022-08-17T06:24:27.501Z,99.90
2022-08-17T06:27:03.677Z,99.90
2022-08-17T06:29:40.300Z,99.90
2022-08-17T06:32:10.028Z,99.90
2022-08-17T06:34:43.678Z,99.90
2022-08-17T06:37:27.353Z,99.90
2022-08-17T06:40:21.751Z,99.90
2022-08-17T06:43:05.474Z,99.90
2022-08-17T06:45:49.503Z,99.90
2022-08-17T06:48:33.959Z,99.90
2022-08-17T06:51:14.363Z,99.90
2022-08-17T06:53:53.618Z,99.90
2022-08-17T06:56:53.314Z,99.90
2022-08-17T06:59:26.822Z,99.90
2022-08-17T07:02:52.154Z,99.90
2022-08-17T07:05:24.079Z,99.90
2022-08-17T07:08:29.696Z,99.90
2022-08-17T07:11:04.971Z,99.90
2022-08-17T07:13:51.504Z,99.90
2022-08-17T07:16:35.856Z,99.50
2022-08-17T07:19:04.586Z,98.80
2022-08-17T07:21:40.837Z,97.60
2022-08-17T07:24:26.315Z,97.60
2022-08-17T07:27:28.690Z,96.60
2022-08-17T07:30:23.916Z,96.00
2022-08-17T07:32:59.389Z,95.60
2022-08-17T07:35:31.397Z,94.90
2022-08-17T07:38:25.349Z,94.40
2022-08-17T07:41:03.696Z,94.30
2022-08-17T07:43:39.794Z,94.10
2022-08-17T07:46:30.920Z,93.70
2022-08-17T07:49:03.654Z,93.50
2022-08-17T07:51:36.330Z,93.30
2022-08-17T07:54:23.124Z,92.40
2022-08-17T07:57:03.376Z,92.20
2022-08-17T07:59:36.755Z,91.60
2022-08-17T08:02:31.957Z,90.80
2022-08-17T08:05:06.778Z,90.60
2022-08-17T08:07:42.429Z,90.30
2022-08-17T08:10:32.264Z,90.00
2022-08-17T08:13:23.665Z,87.60
2022-08-17T08:15:55.725Z,86.70
2022-08-17T08:18:54.917Z,85.60
2022-08-17T08:21:39.471Z,84.10
2022-08-17T08:24:16.489Z,82.90
2022-08-17T08:26:56.759Z,81.70
2022-08-17T08:29:30.679Z,81.60
2022-08-17T08:32:06.363Z,81.70
2022-08-17T08:35:07.552Z,80.30
2022-08-17T08:37:42.969Z,81.80
2022-08-17T08:40:34.420Z,79.10
2022-08-17T08:43:26.699Z,77.80
2022-08-17T08:46:02.580Z,77.60
2022-08-17T08:48:52.762Z,76.60
2022-08-17T08:51:35.823Z,75.80
2022-08-17T08:54:26.947Z,76.00
2022-08-17T08:57:26.695Z,75.50
2022-08-17T09:00:15.665Z,74.90
2022-08-17T09:03:02.981Z,75.70
2022-08-17T09:05:54.172Z,73.80
2022-08-17T09:08:50.418Z,71.30
2022-08-17T09:11:35.652Z,70.80
2022-08-17T09:14:31.260Z,70.30
2022-08-17T09:17:24.169Z,67.70
2022-08-17T09:19:57.102Z,67.80
2022-08-17T09:22:39.379Z,69.20
2022-08-17T09:25:32.708Z,66.90
2022-08-17T09:28:06.589Z,65.50
2022-08-17T09:30:43.631Z,65.00
2022-08-17T09:33:14.024Z,64.20
2022-08-17T09:36:10.005Z,63.40
2022-08-17T09:39:03.023Z,62.40
2022-08-17T09:42:05.169Z,61.40
2022-08-17T09:45:01.161Z,61.30
2022-08-17T09:47:42.089Z,60.20
2022-08-17T09:51:05.496Z,58.90
2022-08-17T09:53:11.681Z,58.50
2022-08-17T09:56:06.786Z,57.80
2022-08-17T09:59:11.350Z,55.90
2022-08-17T10:01:55.677Z,55.00
2022-08-17T10:04:47.756Z,52.90
2022-08-17T10:07:59.271Z,52.80
2022-08-17T10:10:37.056Z,51.60
2022-08-17T10:13:30.099Z,50.30
2022-08-17T10:16:18.652Z,50.50
2022-08-17T10:18:54.157Z,50.70
2022-08-17T10:21:42.605Z,49.60
2022-08-17T10:25:21.492Z,49.80
2022-08-17T10:27:57.758Z,49.30
2022-08-17T10:30:32.830Z,49.30
2022-08-17T10:33:02.759Z,47.90
2022-08-17T10:35:38.772Z,47.00
2022-08-17T10:38:05.624Z,47.00
2022-08-17T10:40:45.399Z,47.10
2022-08-17T10:44:40.320Z,47.20
2022-08-17T10:47:15.017Z,44.30
2022-08-17T10:49:47.721Z,45.30
2022-08-17T10:52:20.759Z,43.60
2022-08-17T10:55:07.927Z,42.90
2022-08-17T10:57:39.070Z,43.30
2022-08-17T11:00:45.383Z,43.40
2022-08-17T11:03:21.152Z,41.90
2022-08-17T11:05:52.266Z,42.20
2022-08-17T11:08:40.055Z,42.20
2022-08-17T11:11:25.669Z,42.30
2022-08-17T11:14:11.340Z,41.50
2022-08-17T11:17:02.147Z,39.70
2022-08-17T11:20:00.692Z,39.80
2022-08-17T11:22:49.932Z,39.40
2022-08-17T11:25:31.613Z,40.40
2022-08-17T11:28:14.936Z,39.30
2022-08-17T11:31:08.532Z,39.00
2022-08-17T11:33:36.873Z,38.30
2022-08-17T11:36:17.593Z,37.40
2022-08-17T11:38:57.900Z,37.70
2022-08-17T11:41:59.314Z,34.60
2022-08-17T11:44:40.724Z,33.00
2022-08-17T11:48:02.264Z,32.40
2022-08-17T11:51:17.458Z,30.50
2022-08-17T11:54:14.709Z,29.80
2022-08-17T11:56:51.802Z,28.60
2022-08-17T11:59:33.359Z,29.20
2022-08-17T12:02:22.141Z,27.90
2022-08-17T12:05:16.911Z,27.80
2022-08-17T12:07:46.855Z,27.60
2022-08-17T12:10:21.702Z,26.90
2022-08-17T12:12:53.054Z,26.30
2022-08-17T12:15:30.533Z,26.70
2022-08-17T12:17:59.023Z,26.90
2022-08-17T12:20:45.376Z,26.60
2022-08-17T12:23:31.735Z,26.10
2022-08-17T12:26:11.959Z,26.30
2022-08-17T12:28:45.840Z,26.20
2022-08-17T12:31:28.573Z,27.00
2022-08-17T12:34:00.388Z,26.10
2022-08-17T12:36:28.534Z,24.90
2022-08-17T12:39:14.058Z,24.00
2022-08-17T12:41:47.791Z,22.70
2022-08-17T12:44:19.997Z,22.70
2022-08-17T12:46:58.990Z,21.20
2022-08-17T12:49:32.791Z,20.90
2022-08-17T12:52:28.401Z,21.50
2022-08-17T12:55:22.530Z,18.10
2022-08-17T12:57:59.618Z,10.90
2022-08-17T13:00:31.842Z,8.00
2022-08-17T13:03:19.140Z,3.60
2022-08-17T13:06:06.481Z,3.40
2022-08-17T13:08:38.564Z,1.00
2022-08-17T13:11:24.863Z,1.00
2022-08-17T13:13:56.605Z,1.00
2022-08-17T13:16:33.972Z,1.00
2022-08-17T13:19:04.711Z,1.00
2022-08-17T13:21:33.529Z,1.00
2022-08-17T13:24:07.690Z,2.10
2022-08-17T13:26:39.110Z,3.00
2022-08-17T13:29:25.264Z,5.10
2022-08-17T13:32:04.996Z,5.00
2022-08-17T13:35:12.390Z,7.20
2022-08-17T13:37:35.614Z,9.10
2022-08-17T13:40:11.977Z,10.10
2022-08-17T13:42:54.138Z,11.00
2022-08-17T13:45:35.601Z,11.00
2022-08-17T13:48:13.745Z,11.00
2022-08-17T13:50:45.967Z,10.70
2022-08-17T13:53:35.974Z,11.60
2022-08-17T13:56:37.485Z,12.10
2022-08-17T13:59:15.174Z,12.00
2022-08-17T14:01:44.480Z,14.30
2022-08-17T14:04:18.118Z,14.80
2022-08-17T14:06:58.863Z,16.50
2022-08-17T14:09:37.186Z,14.40
2022-08-17T14:12:10.597Z,16.40
2022-08-17T14:14:38.346Z,15.90
2022-08-17T14:17:08.091Z,14.60
2022-08-17T14:19:36.764Z,12.20
2022-08-17T14:22:06.493Z,11.10
2022-08-17T14:24:43.931Z,12.30
2022-08-17T14:27:14.744Z,13.00
2022-08-17T14:29:46.138Z,13.50
2022-08-17T14:32:23.666Z,13.70
2022-08-17T14:34:52.438Z,13.70
2022-08-17T14:37:21.615Z,15.00
2022-08-17T14:39:50.801Z,11.00
2022-08-17T14:42:18.604Z,9.30
2022-08-17T14:44:45.593Z,9.00
2022-08-17T14:47:15.810Z,7.50
2022-08-17T14:49:43.690Z,6.90
2022-08-17T14:52:16.815Z,8.80
2022-08-17T14:54:45.809Z,10.00
2022-08-17T14:57:24.706Z,11.70
2022-08-17T15:00:00.379Z,13.50
2022-08-17T15:02:31.074Z,15.20
2022-08-17T15:05:03.759Z,14.60
2022-08-17T15:07:31.485Z,16.50
2022-08-17T15:10:02.707Z,18.40
2022-08-17T15:12:34.026Z,17.10
2022-08-17T15:15:04.437Z,18.90
2022-08-17T15:17:43.690Z,19.90
2022-08-17T15:20:29.764Z,19.40
2022-08-17T15:22:58.876Z,20.80
2022-08-17T15:25:28.856Z,21.50
2022-08-17T15:27:56.022Z,21.80
2022-08-17T15:30:26.594Z,22.60
2022-08-17T15:32:55.573Z,23.70
2022-08-17T15:35:29.817Z,23.00
2022-08-17T15:38:04.587Z,22.60
2022-08-17T15:40:36.975Z,22.80
2022-08-17T15:43:11.438Z,25.30
2022-08-17T15:45:39.214Z,25.10
2022-08-17T15:48:06.828Z,25.30
2022-08-17T15:50:33.604Z,26.20
2022-08-17T15:53:03.413Z,25.60
2022-08-17T15:55:31.681Z,26.70
2022-08-17T15:57:59.079Z,27.00
2022-08-17T16:00:28.421Z,27.70
2022-08-17T16:03:14.979Z,23.50
2022-08-17T16:05:50.563Z,24.60
2022-08-17T16:08:21.086Z,23.00
2022-08-17T16:10:53.700Z,23.90
2022-08-17T16:13:20.788Z,24.70
2022-08-17T16:15:57.206Z,24.60
2022-08-17T16:18:27.384Z,25.00
2022-08-17T16:20:56.786Z,25.10
2022-08-17T16:23:24.068Z,25.80
2022-08-17T16:25:53.864Z,25.40
2022-08-17T16:28:21.800Z,23.30
2022-08-17T16:30:48.630Z,23.50
2022-08-17T16:33:16.751Z,24.50
2022-08-17T16:35:43.960Z,26.00
2022-08-17T16:38:12.429Z,25.40
2022-08-17T16:40:40.490Z,25.80
2022-08-17T16:43:11.922Z,27.10
2022-08-17T16:45:40.565Z,27.70
2022-08-17T16:48:11.926Z,25.70
2022-08-17T16:50:39.851Z,25.40
2022-08-17T16:53:17.156Z,28.80
2022-08-17T16:55:48.757Z,28.80
2022-08-17T16:58:15.997Z,27.50
2022-08-17T17:00:44.259Z,29.20
2022-08-17T17:03:19.982Z,29.70
2022-08-17T17:06:03.557Z,30.20
2022-08-17T17:08:44.514Z,30.10
2022-08-17T17:11:31.308Z,31.40
2022-08-17T17:14:02.748Z,32.40
2022-08-17T17:16:49.031Z,34.40
2022-08-17T17:19:41.168Z,34.30
2022-08-17T17:22:27.345Z,36.10
2022-08-17T17:25:06.037Z,36.40
2022-08-17T17:28:10.433Z,36.80
2022-08-17T17:30:46.479Z,38.10
2022-08-17T17:33:18.458Z,39.90
2022-08-17T17:35:59.246Z,40.00
2022-08-17T17:38:33.480Z,41.00
2022-08-17T17:41:04.612Z,41.30
2022-08-17T17:43:39.831Z,42.50
2022-08-17T17:46:27.997Z,41.30
2022-08-17T17:48:59.428Z,43.90
2022-08-17T17:51:55.028Z,43.50
2022-08-17T17:54:32.448Z,45.00
2022-08-17T17:56:59.271Z,48.40
2022-08-17T17:59:44.456Z,46.10
2022-08-17T18:02:36.934Z,48.00
2022-08-17T18:05:14.424Z,48.40
2022-08-17T18:08:10.814Z,49.50
2022-08-17T18:11:11.427Z,48.20
2022-08-17T18:13:56.583Z,49.50
2022-08-17T18:16:23.602Z,49.10
2022-08-17T18:18:52.570Z,51.70
2022-08-17T18:21:27.634Z,53.20
2022-08-17T18:23:58.648Z,55.50
2022-08-17T18:26:35.196Z,55.90
2022-08-17T18:29:12.536Z,54.40
2022-08-17T18:31:39.658Z,55.30
2022-08-17T18:37:42.584Z,55.20
2022-08-17T18:40:20.471Z,54.70
2022-08-17T18:42:56.264Z,55.10
2022-08-17T18:45:48.536Z,55.00
2022-08-17T18:48:28.619Z,56.80
2022-08-17T18:51:00.360Z,56.50
2022-08-17T18:53:36.828Z,60.00
2022-08-17T18:56:23.199Z,58.80
2022-08-17T18:59:05.734Z,59.90
2022-08-17T19:01:59.999Z,59.20
2022-08-17T19:04:52.486Z,58.30
2022-08-17T19:07:22.136Z,58.40
2022-08-17T19:10:02.432Z,58.90
2022-08-17T19:12:34.816Z,59.80
2022-08-17T19:15:08.536Z,59.70
2022-08-17T19:17:51.385Z,59.70
2022-08-17T19:20:58.832Z,61.80
2022-08-17T19:23:33.145Z,61.60
2022-08-17T19:26:51.308Z,61.10
2022-08-17T19:29:05.852Z,61.70
2022-08-17T19:31:32.864Z,62.70
2022-08-17T19:34:01.752Z,61.30
2022-08-17T19:36:51.875Z,60.60
2022-08-17T19:39:38.214Z,61.40
2022-08-17T19:42:17.379Z,61.80
2022-08-17T19:45:23.047Z,62.00
2022-08-17T19:48:01.673Z,62.00
2022-08-17T19:50:41.516Z,62.40
2022-08-17T19:54:03.801Z,62.20
2022-08-17T19:56:29.028Z,62.70
2022-08-17T19:59:18.188Z,62.80
2022-08-17T20:01:51.659Z,62.60
2022-08-17T20:04:40.440Z,63.60
2022-08-17T20:07:26.325Z,63.60
2022-08-17T20:10:06.582Z,63.30
2022-08-17T20:12:39.383Z,64.30
2022-08-17T20:15:14.678Z,63.90
2022-08-17T20:17:45.188Z,64.60
2022-08-17T20:20:47.052Z,64.50
2022-08-17T20:23:30.778Z,65.00
2022-08-17T20:26:20.090Z,64.00
2022-08-17T20:29:14.319Z,64.30
2022-08-17T20:31:56.435Z,63.80
2022-08-17T20:34:31.021Z,65.10
2022-08-17T20:37:30.349Z,64.50
2022-08-17T20:39:57.149Z,64.50
2022-08-17T20:42:23.891Z,64.20
2022-08-17T20:45:02.165Z,63.80
2022-08-17T20:47:50.426Z,63.30
2022-08-17T20:50:29.273Z,63.60
2022-08-17T20:53:00.500Z,63.30
2022-08-17T20:55:52.025Z,63.90
2022-08-17T20:58:23.017Z,63.20
2022-08-17T21:01:13.750Z,63.20
2022-08-17T21:03:51.313Z,63.20
2022-08-17T21:06:24.235Z,63.80
2022-08-17T21:08:59.296Z,64.80
2022-08-17T21:11:57.009Z,64.70
2022-08-17T21:14:33.229Z,65.60
2022-08-17T21:17:24.179Z,65.50
2022-08-17T21:20:17.387Z,66.40
2022-08-17T21:23:17.161Z,66.60
2022-08-17T21:26:02.510Z,67.30
2022-08-17T21:28:34.576Z,67.90
2022-08-17T21:31:09.210Z,68.10
2022-08-17T21:33:39.616Z,68.60
2022-08-17T21:36:12.643Z,68.90
2022-08-17T21:38:48.895Z,70.00
2022-08-17T21:41:27.351Z,70.00
2022-08-17T21:44:03.190Z,70.10
2022-08-17T21:46:36.908Z,70.80
2022-08-17T21:49:13.809Z,70.80
2022-08-17T21:51:49.903Z,71.50
2022-08-17T21:54:36.125Z,71.60
2022-08-17T21:57:14.700Z,72.40
2022-08-17T21:59:44.730Z,72.60
2022-08-17T22:02:29.547Z,73.00
2022-08-17T22:05:10.238Z,73.00
2022-08-17T22:07:45.725Z,74.20
2022-08-17T22:10:40.405Z,74.30
2022-08-17T22:13:19.978Z,75.00
2022-08-17T22:16:03.974Z,75.20
2022-08-17T22:18:44.668Z,75.30
2022-08-17T22:21:11.510Z,75.30
2022-08-17T22:24:00.105Z,75.30
2022-08-17T22:27:15.256Z,75.90
2022-08-17T22:30:00.315Z,76.20
2022-08-17T22:32:46.187Z,77.20
2022-08-17T22:35:35.868Z,77.30
2022-08-17T22:38:18.702Z,77.40
2022-08-17T22:40:51.621Z,78.10
2022-08-17T22:43:26.300Z,78.60
2022-08-17T22:45:57.245Z,79.50
2022-08-17T22:48:28.760Z,79.80
2022-08-17T22:51:13.407Z,80.10
2022-08-17T22:54:34.131Z,80.30
2022-08-17T22:57:22.739Z,80.40
2022-08-17T22:59:57.549Z,80.70
2022-08-17T23:02:29.210Z,81.10
2022-08-17T23:05:16.830Z,81.90
2022-08-17T23:07:45.741Z,81.70
2022-08-17T23:10:16.155Z,82.50
2022-08-17T23:12:46.105Z,82.00
2022-08-17T23:15:18.981Z,81.80
2022-08-17T23:17:46.491Z,81.10
2022-08-17T23:20:15.632Z,81.60
2022-08-17T23:22:51.835Z,81.60
2022-08-17T23:25:27.088Z,82.00
2022-08-17T23:27:54.505Z,82.10
2022-08-17T23:30:25.614Z,82.80
2022-08-17T23:32:54.290Z,83.00
2022-08-17T23:35:40.369Z,83.50
2022-08-17T23:38:14.773Z,84.50
2022-08-17T23:40:44.429Z,84.30
2022-08-17T23:43:25.712Z,85.20
2022-08-17T23:45:57.614Z,85.20
2022-08-17T23:48:32.618Z,85.90
2022-08-17T23:51:09.967Z,86.30
2022-08-17T23:53:44.066Z,86.00
2022-08-17T23:56:11.686Z,86.00
2022-08-17T23:58:46.870Z,85.90
